sensor_id;sensor_type;location;lat;lon;timestamp;P1;durP1;ratioP1;P2;durP2;ratioP2
5585;SDS011;2815;54.094;12.112;2024-03-23T00:54:03;23.13;;;2.85;;
5585;SDS011;2815;54.094;12.112;2024-03-23T00:56:31;15.63;;;2.70;;
5585;SDS011;2815;54.094;12.112;2024-03-23T00:58:57;22.23;;;3.17;;
5585;SDS011;2815;54.094;12.112;2024-03-23T01:01:24;21.67;;;3.10;;
5585;SDS011;2815;54.094;12.112;2024-03-23T01:03:50;16.67;;;2.75;;
5585;SDS011;2815;54.094;12.112;2024-03-23T01:06:18;18.65;;;3.58;;
5585;SDS011;2815;54.094;12.112;2024-03-23T01:08:44;15.07;;;3.10;;
5585;SDS011;2815;54.094;12.112;2024-03-23T01:11:14;13.88;;;2.40;;
5585;SDS011;2815;54.094;12.112;2024-03-23T01:13:41;19.65;;;2.95;;
5585;SDS011;2815;54.094;12.112;2024-03-23T01:16:08;15.73;;;2.38;;
5585;SDS011;2815;54.094;12.112;2024-03-23T01:18:35;21.48;;;3.13;;
5585;SDS011;2815;54.094;12.112;2024-03-23T01:21:02;20.83;;;3.13;;
5585;SDS011;2815;54.094;12.112;2024-03-23T01:23:29;16.35;;;3.17;;
5585;SDS011;2815;54.094;12.112;2024-03-23T01:25:56;10.90;;;2.50;;
5585;SDS011;2815;54.094;12.112;2024-03-23T01:28:24;22.35;;;3.13;;
5585;SDS011;2815;54.094;12.112;2024-03-23T01:30:51;14.57;;;2.85;;
5585;SDS011;2815;54.094;12.112;2024-03-23T01:33:17;18.58;;;3.55;;
5585;SDS011;2815;54.094;12.112;2024-03-23T01:35:44;10.60;;;2.60;;
5585;SDS011;2815;54.094;12.112;2024-03-23T01:38:10;15.45;;;3.42;;
5585;SDS011;2815;54.094;12.112;2024-03-23T01:40:37;14.82;;;2.90;;
5585;SDS011;2815;54.094;12.112;2024-03-23T01:43:04;9.85;;;2.40;;
5585;SDS011;2815;54.094;12.112;2024-03-23T01:45:34;16.63;;;2.85;;
5585;SDS011;2815;54.094;12.112;2024-03-23T01:48:01;13.52;;;2.92;;
5585;SDS011;2815;54.094;12.112;2024-03-23T01:50:28;24.15;;;3.38;;
5585;SDS011;2815;54.094;12.112;2024-03-23T01:52:59;19.20;;;3.20;;
5585;SDS011;2815;54.094;12.112;2024-03-23T01:55:27;16.20;;;2.67;;
5585;SDS011;2815;54.094;12.112;2024-03-23T01:57:53;20.15;;;3.00;;
5585;SDS011;2815;54.094;12.112;2024-03-23T02:00:23;27.20;;;3.60;;
5585;SDS011;2815;54.094;12.112;2024-03-23T02:02:51;17.48;;;3.13;;
5585;SDS011;2815;54.094;12.112;2024-03-23T02:05:18;15.52;;;2.88;;
5585;SDS011;2815;54.094;12.112;2024-03-23T02:07:44;16.25;;;2.75;;
5585;SDS011;2815;54.094;12.112;2024-03-23T02:10:11;13.98;;;3.08;;
5585;SDS011;2815;54.094;12.112;2024-03-23T02:12:39;15.30;;;2.97;;
5585;SDS011;2815;54.094;12.112;2024-03-23T02:15:06;21.38;;;3.17;;
5585;SDS011;2815;54.094;12.112;2024-03-23T02:17:34;21.92;;;3.35;;
5585;SDS011;2815;54.094;12.112;2024-03-23T02:20:04;19.83;;;3.30;;
5585;SDS011;2815;54.094;12.112;2024-03-23T02:22:38;15.15;;;2.80;;
5585;SDS011;2815;54.094;12.112;2024-03-23T02:25:07;22.00;;;2.78;;
5585;SDS011;2815;54.094;12.112;2024-03-23T02:27:33;14.93;;;2.47;;
5585;SDS011;2815;54.094;12.112;2024-03-23T02:30:01;16.90;;;3.20;;
5585;SDS011;2815;54.094;12.112;2024-03-23T02:32:28;9.52;;;2.22;;
5585;SDS011;2815;54.094;12.112;2024-03-23T02:34:55;25.33;;;3.22;;
5585;SDS011;2815;54.094;12.112;2024-03-23T02:37:22;10.35;;;2.40;;
5585;SDS011;2815;54.094;12.112;2024-03-23T02:39:49;18.23;;;2.50;;
5585;SDS011;2815;54.094;12.112;2024-03-23T02:42:18;8.48;;;2.45;;
5585;SDS011;2815;54.094;12.112;2024-03-23T02:44:46;20.35;;;2.95;;
5585;SDS011;2815;54.094;12.112;2024-03-23T02:47:13;11.23;;;2.55;;
5585;SDS011;2815;54.094;12.112;2024-03-23T02:49:40;13.25;;;3.08;;
5585;SDS011;2815;54.094;12.112;2024-03-23T02:52:08;15.70;;;2.80;;
5585;SDS011;2815;54.094;12.112;2024-03-23T02:54:34;18.02;;;2.63;;
5585;SDS011;2815;54.094;12.112;2024-03-23T02:57:02;20.02;;;2.67;;
5585;SDS011;2815;54.094;12.112;2024-03-23T02:59:31;20.00;;;3.47;;
5585;SDS011;2815;54.094;12.112;2024-03-23T03:01:58;17.40;;;3.15;;
5585;SDS011;2815;54.094;12.112;2024-03-23T03:04:25;18.92;;;3.30;;
5585;SDS011;2815;54.094;12.112;2024-03-23T03:06:52;16.50;;;3.40;;
5585;SDS011;2815;54.094;12.112;2024-03-23T03:09:19;18.30;;;3.33;;
5585;SDS011;2815;54.094;12.112;2024-03-23T03:11:47;21.25;;;3.17;;
5585;SDS011;2815;54.094;12.112;2024-03-23T03:14:13;17.85;;;2.33;;
5585;SDS011;2815;54.094;12.112;2024-03-23T03:16:44;20.00;;;3.20;;
5585;SDS011;2815;54.094;12.112;2024-03-23T03:19:10;13.20;;;2.50;;
5585;SDS011;2815;54.094;12.112;2024-03-23T03:21:38;22.20;;;3.05;;
5585;SDS011;2815;54.094;12.112;2024-03-23T03:24:05;20.63;;;3.30;;
5585;SDS011;2815;54.094;12.112;2024-03-23T03:26:33;18.98;;;2.65;;
5585;SDS011;2815;54.094;12.112;2024-03-23T03:29:00;17.85;;;3.10;;
5585;SDS011;2815;54.094;12.112;2024-03-23T03:31:28;9.73;;;3.08;;
5585;SDS011;2815;54.094;12.112;2024-03-23T03:33:56;20.27;;;2.50;;
5585;SDS011;2815;54.094;12.112;2024-03-23T03:36:23;15.50;;;2.63;;
5585;SDS011;2815;54.094;12.112;2024-03-23T03:38:50;15.20;;;2.63;;
5585;SDS011;2815;54.094;12.112;2024-03-23T03:41:17;13.20;;;2.70;;
5585;SDS011;2815;54.094;12.112;2024-03-23T03:43:44;11.25;;;2.15;;
5585;SDS011;2815;54.094;12.112;2024-03-23T03:46:11;15.85;;;2.92;;
5585;SDS011;2815;54.094;12.112;2024-03-23T03:48:38;20.58;;;2.90;;
5585;SDS011;2815;54.094;12.112;2024-03-23T03:51:06;11.02;;;2.20;;
5585;SDS011;2815;54.094;12.112;2024-03-23T03:53:32;13.10;;;2.30;;
5585;SDS011;2815;54.094;12.112;2024-03-23T03:56:00;20.23;;;3.00;;
5585;SDS011;2815;54.094;12.112;2024-03-23T03:58:27;17.52;;;2.80;;
5585;SDS011;2815;54.094;12.112;2024-03-23T04:00:55;16.23;;;2.50;;
5585;SDS011;2815;54.094;12.112;2024-03-23T04:03:22;24.13;;;1.92;;
5585;SDS011;2815;54.094;12.112;2024-03-23T04:05:52;22.63;;;2.63;;
5585;SDS011;2815;54.094;12.112;2024-03-23T04:08:21;19.27;;;2.17;;
5585;SDS011;2815;54.094;12.112;2024-03-23T04:10:47;16.55;;;2.20;;
5585;SDS011;2815;54.094;12.112;2024-03-23T04:13:15;10.30;;;1.75;;
5585;SDS011;2815;54.094;12.112;2024-03-23T04:15:42;12.57;;;3.17;;
5585;SDS011;2815;54.094;12.112;2024-03-23T04:18:09;13.32;;;2.47;;
5585;SDS011;2815;54.094;12.112;2024-03-23T04:20:35;12.40;;;1.85;;
5585;SDS011;2815;54.094;12.112;2024-03-23T04:23:03;10.73;;;2.20;;
5585;SDS011;2815;54.094;12.112;2024-03-23T04:25:31;16.40;;;2.33;;
5585;SDS011;2815;54.094;12.112;2024-03-23T04:28:00;22.50;;;2.95;;
5585;SDS011;2815;54.094;12.112;2024-03-23T04:30:26;13.43;;;1.90;;
5585;SDS011;2815;54.094;12.112;2024-03-23T04:32:55;17.33;;;2.28;;
5585;SDS011;2815;54.094;12.112;2024-03-23T04:35:22;16.77;;;2.88;;
5585;SDS011;2815;54.094;12.112;2024-03-23T04:37:51;16.70;;;2.25;;
5585;SDS011;2815;54.094;12.112;2024-03-23T04:40:19;22.40;;;2.63;;
5585;SDS011;2815;54.094;12.112;2024-03-23T04:42:48;19.48;;;2.25;;
5585;SDS011;2815;54.094;12.112;2024-03-23T04:45:15;17.88;;;1.98;;
5585;SDS011;2815;54.094;12.112;2024-03-23T04:47:42;17.42;;;2.50;;
5585;SDS011;2815;54.094;12.112;2024-03-23T04:50:10;14.90;;;2.03;;
5585;SDS011;2815;54.094;12.112;2024-03-23T04:52:38;15.80;;;2.85;;
5585;SDS011;2815;54.094;12.112;2024-03-23T04:55:09;13.18;;;2.47;;
5585;SDS011;2815;54.094;12.112;2024-03-23T04:57:39;19.48;;;2.40;;
5585;SDS011;2815;54.094;12.112;2024-03-23T05:00:08;17.45;;;2.30;;
5585;SDS011;2815;54.094;12.112;2024-03-23T05:02:46;15.18;;;2.15;;
5585;SDS011;2815;54.094;12.112;2024-03-23T05:05:14;13.07;;;2.63;;
5585;SDS011;2815;54.094;12.112;2024-03-23T05:07:42;19.10;;;2.72;;
5585;SDS011;2815;54.094;12.112;2024-03-23T05:10:10;13.27;;;2.50;;
5585;SDS011;2815;54.094;12.112;2024-03-23T05:12:38;19.42;;;2.42;;
5585;SDS011;2815;54.094;12.112;2024-03-23T05:15:10;22.95;;;2.70;;
5585;SDS011;2815;54.094;12.112;2024-03-23T05:17:37;15.23;;;1.80;;
5585;SDS011;2815;54.094;12.112;2024-03-23T05:20:06;16.65;;;2.08;;
5585;SDS011;2815;54.094;12.112;2024-03-23T05:22:35;10.32;;;1.88;;
5585;SDS011;2815;54.094;12.112;2024-03-23T05:25:04;15.60;;;3.22;;
5585;SDS011;2815;54.094;12.112;2024-03-23T05:27:31;15.25;;;2.28;;
5585;SDS011;2815;54.094;12.112;2024-03-23T05:30:00;16.40;;;2.75;;
5585;SDS011;2815;54.094;12.112;2024-03-23T05:32:29;16.77;;;3.08;;
5585;SDS011;2815;54.094;12.112;2024-03-23T05:34:57;12.45;;;2.35;;
5585;SDS011;2815;54.094;12.112;2024-03-23T05:37:25;14.85;;;2.15;;
5585;SDS011;2815;54.094;12.112;2024-03-23T05:39:57;18.15;;;2.67;;
5585;SDS011;2815;54.094;12.112;2024-03-23T05:42:23;26.10;;;3.45;;
5585;SDS011;2815;54.094;12.112;2024-03-23T05:44:51;17.48;;;2.53;;
5585;SDS011;2815;54.094;12.112;2024-03-23T05:47:17;11.90;;;2.50;;
5585;SDS011;2815;54.094;12.112;2024-03-23T05:49:47;26.15;;;2.90;;
5585;SDS011;2815;54.094;12.112;2024-03-23T05:52:13;19.48;;;2.63;;
5585;SDS011;2815;54.094;12.112;2024-03-23T05:54:41;17.17;;;2.90;;
5585;SDS011;2815;54.094;12.112;2024-03-23T05:57:08;13.18;;;2.28;;
5585;SDS011;2815;54.094;12.112;2024-03-23T05:59:37;21.05;;;2.97;;
5585;SDS011;2815;54.094;12.112;2024-03-23T06:02:03;17.83;;;2.20;;
5585;SDS011;2815;54.094;12.112;2024-03-23T06:04:31;20.20;;;2.25;;
5585;SDS011;2815;54.094;12.112;2024-03-23T06:06:58;20.83;;;2.58;;
5585;SDS011;2815;54.094;12.112;2024-03-23T06:09:25;13.73;;;2.28;;
5585;SDS011;2815;54.094;12.112;2024-03-23T06:11:51;18.50;;;2.60;;
5585;SDS011;2815;54.094;12.112;2024-03-23T06:14:20;18.88;;;3.05;;
5585;SDS011;2815;54.094;12.112;2024-03-23T06:16:46;10.45;;;2.72;;
5585;SDS011;2815;54.094;12.112;2024-03-23T06:19:14;12.52;;;2.10;;
5585;SDS011;2815;54.094;12.112;2024-03-23T06:21:42;15.23;;;2.45;;
5585;SDS011;2815;54.094;12.112;2024-03-23T06:24:12;21.35;;;2.45;;
5585;SDS011;2815;54.094;12.112;2024-03-23T06:26:39;19.17;;;2.65;;
5585;SDS011;2815;54.094;12.112;2024-03-23T06:29:07;17.27;;;2.50;;
5585;SDS011;2815;54.094;12.112;2024-03-23T06:31:34;24.10;;;2.90;;
5585;SDS011;2815;54.094;12.112;2024-03-23T06:34:02;14.20;;;2.38;;
5585;SDS011;2815;54.094;12.112;2024-03-23T06:36:28;16.27;;;2.40;;
5585;SDS011;2815;54.094;12.112;2024-03-23T06:38:56;13.60;;;2.75;;
5585;SDS011;2815;54.094;12.112;2024-03-23T06:41:24;12.38;;;2.80;;
5585;SDS011;2815;54.094;12.112;2024-03-23T06:43:51;18.35;;;2.88;;
5585;SDS011;2815;54.094;12.112;2024-03-23T06:46:19;12.43;;;2.42;;
5585;SDS011;2815;54.094;12.112;2024-03-23T06:48:47;12.40;;;1.83;;
5585;SDS011;2815;54.094;12.112;2024-03-23T06:51:13;15.10;;;2.78;;
5585;SDS011;2815;54.094;12.112;2024-03-23T06:53:41;13.73;;;2.40;;
5585;SDS011;2815;54.094;12.112;2024-03-23T06:56:07;20.27;;;2.20;;
5585;SDS011;2815;54.094;12.112;2024-03-23T06:58:38;24.23;;;2.88;;
5585;SDS011;2815;54.094;12.112;2024-03-23T07:01:05;16.90;;;2.88;;
5585;SDS011;2815;54.094;12.112;2024-03-23T07:03:34;20.45;;;3.42;;
5585;SDS011;2815;54.094;12.112;2024-03-23T07:06:00;17.80;;;3.20;;
5585;SDS011;2815;54.094;12.112;2024-03-23T07:08:28;18.23;;;3.45;;
5585;SDS011;2815;54.094;12.112;2024-03-23T07:10:56;14.45;;;2.50;;
5585;SDS011;2815;54.094;12.112;2024-03-23T07:13:25;13.63;;;2.55;;
5585;SDS011;2815;54.094;12.112;2024-03-23T07:15:53;20.30;;;3.10;;
5585;SDS011;2815;54.094;12.112;2024-03-23T07:18:21;23.98;;;2.92;;
5585;SDS011;2815;54.094;12.112;2024-03-23T07:20:53;12.35;;;2.40;;
5585;SDS011;2815;54.094;12.112;2024-03-23T07:23:25;10.80;;;2.30;;
5585;SDS011;2815;54.094;12.112;2024-03-23T07:25:58;13.85;;;2.58;;
5585;SDS011;2815;54.094;12.112;2024-03-23T07:28:25;24.52;;;2.88;;
5585;SDS011;2815;54.094;12.112;2024-03-23T07:33:43;13.15;;;2.63;;
5585;SDS011;2815;54.094;12.112;2024-03-23T07:36:13;15.68;;;3.22;;
5585;SDS011;2815;54.094;12.112;2024-03-23T07:38:40;17.20;;;3.65;;
5585;SDS011;2815;54.094;12.112;2024-03-23T07:41:09;19.02;;;2.67;;
5585;SDS011;2815;54.094;12.112;2024-03-23T07:43:39;17.67;;;2.97;;
5585;SDS011;2815;54.094;12.112;2024-03-23T07:46:07;14.80;;;2.80;;
5585;SDS011;2815;54.094;12.112;2024-03-23T07:48:36;15.30;;;3.15;;
5585;SDS011;2815;54.094;12.112;2024-03-23T07:51:06;20.02;;;3.35;;
5585;SDS011;2815;54.094;12.112;2024-03-23T07:53:34;24.17;;;3.80;;
5585;SDS011;2815;54.094;12.112;2024-03-23T07:56:04;18.58;;;3.15;;
5585;SDS011;2815;54.094;12.112;2024-03-23T07:58:32;26.13;;;3.50;;
5585;SDS011;2815;54.094;12.112;2024-03-23T08:01:03;24.85;;;3.67;;
5585;SDS011;2815;54.094;12.112;2024-03-23T08:03:39;14.80;;;3.22;;
5585;SDS011;2815;54.094;12.112;2024-03-23T08:06:09;30.25;;;3.58;;
5585;SDS011;2815;54.094;12.112;2024-03-23T08:08:36;27.63;;;3.47;;
5585;SDS011;2815;54.094;12.112;2024-03-23T08:11:05;15.02;;;3.50;;
5585;SDS011;2815;54.094;12.112;2024-03-23T08:13:33;9.60;;;2.72;;
5585;SDS011;2815;54.094;12.112;2024-03-23T08:16:08;17.98;;;3.80;;
5585;SDS011;2815;54.094;12.112;2024-03-23T08:18:37;16.55;;;3.33;;
5585;SDS011;2815;54.094;12.112;2024-03-23T08:21:04;17.63;;;3.13;;
5585;SDS011;2815;54.094;12.112;2024-03-23T08:23:41;16.48;;;2.95;;
5585;SDS011;2815;54.094;12.112;2024-03-23T08:26:09;23.38;;;3.25;;
5585;SDS011;2815;54.094;12.112;2024-03-23T08:28:37;15.30;;;3.22;;
5585;SDS011;2815;54.094;12.112;2024-03-23T08:31:05;21.67;;;3.63;;
5585;SDS011;2815;54.094;12.112;2024-03-23T08:33:33;24.08;;;3.05;;
5585;SDS011;2815;54.094;12.112;2024-03-23T08:36:02;29.85;;;3.35;;
5585;SDS011;2815;54.094;12.112;2024-03-23T08:38:31;12.13;;;2.50;;
5585;SDS011;2815;54.094;12.112;2024-03-23T08:40:58;13.35;;;2.70;;
5585;SDS011;2815;54.094;12.112;2024-03-23T08:43:26;18.58;;;3.50;;
5585;SDS011;2815;54.094;12.112;2024-03-23T08:46:02;15.32;;;3.65;;
5585;SDS011;2815;54.094;12.112;2024-03-23T08:48:30;17.33;;;3.03;;
5585;SDS011;2815;54.094;12.112;2024-03-23T08:50:59;12.57;;;2.42;;
5585;SDS011;2815;54.094;12.112;2024-03-23T08:53:29;18.98;;;3.30;;
5585;SDS011;2815;54.094;12.112;2024-03-23T08:55:57;13.98;;;2.72;;
5585;SDS011;2815;54.094;12.112;2024-03-23T08:58:28;12.77;;;2.63;;
5585;SDS011;2815;54.094;12.112;2024-03-23T09:00:57;18.08;;;3.17;;
5585;SDS011;2815;54.094;12.112;2024-03-23T09:03:31;15.25;;;2.63;;
5585;SDS011;2815;54.094;12.112;2024-03-23T09:05:58;9.95;;;2.15;;
5585;SDS011;2815;54.094;12.112;2024-03-23T09:08:28;14.13;;;2.47;;
5585;SDS011;2815;54.094;12.112;2024-03-23T09:10:54;16.90;;;2.47;;
5585;SDS011;2815;54.094;12.112;2024-03-23T09:13:24;13.13;;;2.10;;
5585;SDS011;2815;54.094;12.112;2024-03-23T09:15:51;11.70;;;2.53;;
5585;SDS011;2815;54.094;12.112;2024-03-23T09:18:22;11.65;;;2.72;;
5585;SDS011;2815;54.094;12.112;2024-03-23T09:20:49;14.50;;;2.65;;
5585;SDS011;2815;54.094;12.112;2024-03-23T09:23:19;11.52;;;2.30;;
5585;SDS011;2815;54.094;12.112;2024-03-23T09:25:48;17.80;;;2.90;;
5585;SDS011;2815;54.094;12.112;2024-03-23T09:28:18;13.98;;;2.05;;
5585;SDS011;2815;54.094;12.112;2024-03-23T09:30:47;17.25;;;2.40;;
5585;SDS011;2815;54.094;12.112;2024-03-23T09:33:36;14.75;;;2.35;;
5585;SDS011;2815;54.094;12.112;2024-03-23T09:36:03;10.18;;;2.08;;
5585;SDS011;2815;54.094;12.112;2024-03-23T09:38:31;13.23;;;2.28;;
5585;SDS011;2815;54.094;12.112;2024-03-23T09:41:06;12.02;;;2.05;;
5585;SDS011;2815;54.094;12.112;2024-03-23T09:43:35;11.85;;;2.40;;
5585;SDS011;2815;54.094;12.112;2024-03-23T09:46:01;11.27;;;3.00;;
5585;SDS011;2815;54.094;12.112;2024-03-23T09:48:31;20.55;;;2.65;;
5585;SDS011;2815;54.094;12.112;2024-03-23T09:50:57;13.93;;;2.92;;
5585;SDS011;2815;54.094;12.112;2024-03-23T09:53:29;16.13;;;2.92;;
5585;SDS011;2815;54.094;12.112;2024-03-23T09:55:56;15.95;;;2.60;;
5585;SDS011;2815;54.094;12.112;2024-03-23T09:58:25;21.10;;;2.90;;
5585;SDS011;2815;54.094;12.112;2024-03-23T10:00:56;11.82;;;2.45;;
5585;SDS011;2815;54.094;12.112;2024-03-23T10:03:24;10.30;;;2.17;;
5585;SDS011;2815;54.094;12.112;2024-03-23T10:06:00;13.02;;;1.90;;
5585;SDS011;2815;54.094;12.112;2024-03-23T10:08:27;8.73;;;1.52;;
5585;SDS011;2815;54.094;12.112;2024-03-23T10:11:07;15.18;;;1.92;;
5585;SDS011;2815;54.094;12.112;2024-03-23T10:13:41;7.13;;;1.55;;
5585;SDS011;2815;54.094;12.112;2024-03-23T10:16:09;10.55;;;1.67;;
5585;SDS011;2815;54.094;12.112;2024-03-23T10:18:39;13.30;;;1.88;;
5585;SDS011;2815;54.094;12.112;2024-03-23T10:21:07;12.18;;;2.10;;
5585;SDS011;2815;54.094;12.112;2024-03-23T10:23:34;8.15;;;1.52;;
5585;SDS011;2815;54.094;12.112;2024-03-23T10:32:55;6.47;;;1.30;;
5585;SDS011;2815;54.094;12.112;2024-03-23T10:35:38;18.23;;;2.03;;
5585;SDS011;2815;54.094;12.112;2024-03-23T10:38:23;5.78;;;1.90;;
5585;SDS011;2815;54.094;12.112;2024-03-23T10:40:51;9.13;;;1.52;;
5585;SDS011;2815;54.094;12.112;2024-03-23T10:43:18;10.30;;;1.60;;
5585;SDS011;2815;54.094;12.112;2024-03-23T10:45:50;8.60;;;1.65;;
5585;SDS011;2815;54.094;12.112;2024-03-23T10:48:17;5.60;;;1.17;;
5585;SDS011;2815;54.094;12.112;2024-03-23T10:50:44;8.65;;;1.40;;
5585;SDS011;2815;54.094;12.112;2024-03-23T10:53:11;16.63;;;2.13;;
5585;SDS011;2815;54.094;12.112;2024-03-23T10:55:40;13.07;;;2.00;;
5585;SDS011;2815;54.094;12.112;2024-03-23T10:58:09;8.70;;;1.70;;
5585;SDS011;2815;54.094;12.112;2024-03-23T11:00:38;9.50;;;1.92;;
5585;SDS011;2815;54.094;12.112;2024-03-23T11:06:02;19.95;;;2.45;;
5585;SDS011;2815;54.094;12.112;2024-03-23T11:08:31;13.07;;;2.00;;
5585;SDS011;2815;54.094;12.112;2024-03-23T11:11:14;14.70;;;1.98;;
5585;SDS011;2815;54.094;12.112;2024-03-23T11:13:42;9.48;;;1.70;;
5585;SDS011;2815;54.094;12.112;2024-03-23T11:16:15;11.77;;;1.80;;
5585;SDS011;2815;54.094;12.112;2024-03-23T11:18:45;7.63;;;1.83;;
5585;SDS011;2815;54.094;12.112;2024-03-23T11:21:11;11.23;;;1.98;;
5585;SDS011;2815;54.094;12.112;2024-03-23T11:24:18;8.10;;;1.40;;
5585;SDS011;2815;54.094;12.112;2024-03-23T11:26:45;14.45;;;1.95;;
5585;SDS011;2815;54.094;12.112;2024-03-23T11:29:13;7.47;;;1.38;;
5585;SDS011;2815;54.094;12.112;2024-03-23T11:31:45;9.98;;;2.13;;
5585;SDS011;2815;54.094;12.112;2024-03-23T11:34:16;10.57;;;1.60;;
5585;SDS011;2815;54.094;12.112;2024-03-23T11:36:43;4.75;;;1.40;;
5585;SDS011;2815;54.094;12.112;2024-03-23T11:39:11;8.25;;;1.73;;
5585;SDS011;2815;54.094;12.112;2024-03-23T11:41:45;8.80;;;1.42;;
5585;SDS011;2815;54.094;12.112;2024-03-23T11:44:14;8.55;;;1.50;;
5585;SDS011;2815;54.094;12.112;2024-03-23T11:46:41;12.52;;;1.95;;
5585;SDS011;2815;54.094;12.112;2024-03-23T11:49:20;6.28;;;1.27;;
5585;SDS011;2815;54.094;12.112;2024-03-23T11:51:50;3.08;;;1.13;;
5585;SDS011;2815;54.094;12.112;2024-03-23T11:54:20;7.18;;;1.42;;
5585;SDS011;2815;54.094;12.112;2024-03-23T11:56:53;13.68;;;1.30;;
5585;SDS011;2815;54.094;12.112;2024-03-23T11:59:31;3.08;;;0.70;;
5585;SDS011;2815;54.094;12.112;2024-03-23T12:01:59;5.97;;;0.60;;
5585;SDS011;2815;54.094;12.112;2024-03-23T12:04:29;6.82;;;0.70;;
5585;SDS011;2815;54.094;12.112;2024-03-23T12:07:11;4.07;;;0.60;;
5585;SDS011;2815;54.094;12.112;2024-03-23T12:09:39;1.35;;;0.52;;
5585;SDS011;2815;54.094;12.112;2024-03-23T12:12:07;1.15;;;0.57;;
5585;SDS011;2815;54.094;12.112;2024-03-23T12:14:35;2.70;;;0.68;;
5585;SDS011;2815;54.094;12.112;2024-03-23T12:17:12;2.88;;;0.88;;
5585;SDS011;2815;54.094;12.112;2024-03-23T12:19:41;1.33;;;0.50;;
5585;SDS011;2815;54.094;12.112;2024-03-23T12:22:10;0.75;;;0.50;;
5585;SDS011;2815;54.094;12.112;2024-03-23T12:24:37;3.90;;;0.65;;
5585;SDS011;2815;54.094;12.112;2024-03-23T12:27:06;2.03;;;0.40;;
5585;SDS011;2815;54.094;12.112;2024-03-23T12:29:34;2.00;;;0.70;;
5585;SDS011;2815;54.094;12.112;2024-03-23T12:32:00;4.43;;;0.90;;
5585;SDS011;2815;54.094;12.112;2024-03-23T12:34:29;1.85;;;0.50;;
5585;SDS011;2815;54.094;12.112;2024-03-23T12:36:58;2.15;;;0.70;;
5585;SDS011;2815;54.094;12.112;2024-03-23T12:39:25;0.90;;;0.40;;
5585;SDS011;2815;54.094;12.112;2024-03-23T12:41:52;4.45;;;0.88;;
5585;SDS011;2815;54.094;12.112;2024-03-23T12:44:20;4.88;;;0.60;;
5585;SDS011;2815;54.094;12.112;2024-03-23T12:46:49;2.22;;;0.70;;
5585;SDS011;2815;54.094;12.112;2024-03-23T12:49:17;3.63;;;0.85;;
5585;SDS011;2815;54.094;12.112;2024-03-23T12:51:47;3.42;;;0.80;;
5585;SDS011;2815;54.094;12.112;2024-03-23T12:57:08;6.72;;;0.75;;
5585;SDS011;2815;54.094;12.112;2024-03-23T12:59:35;3.05;;;1.17;;
5585;SDS011;2815;54.094;12.112;2024-03-23T13:02:01;2.88;;;1.00;;
5585;SDS011;2815;54.094;12.112;2024-03-23T13:04:29;3.28;;;0.90;;
5585;SDS011;2815;54.094;12.112;2024-03-23T13:06:55;3.75;;;0.90;;
5585;SDS011;2815;54.094;12.112;2024-03-23T13:09:22;1.17;;;0.77;;
5585;SDS011;2815;54.094;12.112;2024-03-23T13:11:50;6.25;;;1.23;;
5585;SDS011;2815;54.094;12.112;2024-03-23T13:14:19;2.92;;;1.08;;
5585;SDS011;2815;54.094;12.112;2024-03-23T13:16:46;4.03;;;1.02;;
5585;SDS011;2815;54.094;12.112;2024-03-23T13:19:13;2.20;;;1.13;;
5585;SDS011;2815;54.094;12.112;2024-03-23T13:21:40;2.45;;;0.95;;
5585;SDS011;2815;54.094;12.112;2024-03-23T13:24:08;3.00;;;1.10;;
5585;SDS011;2815;54.094;12.112;2024-03-23T13:26:34;6.70;;;1.10;;
5585;SDS011;2815;54.094;12.112;2024-03-23T13:29:04;1.95;;;0.90;;
5585;SDS011;2815;54.094;12.112;2024-03-23T13:31:30;3.17;;;1.30;;
5585;SDS011;2815;54.094;12.112;2024-03-23T13:33:57;3.88;;;1.08;;
5585;SDS011;2815;54.094;12.112;2024-03-23T13:36:23;5.32;;;1.40;;
5585;SDS011;2815;54.094;12.112;2024-03-23T13:38:54;4.35;;;1.00;;
5585;SDS011;2815;54.094;12.112;2024-03-23T13:41:23;3.63;;;0.80;;
5585;SDS011;2815;54.094;12.112;2024-03-23T13:43:51;6.97;;;0.95;;
5585;SDS011;2815;54.094;12.112;2024-03-23T13:46:19;4.95;;;1.08;;
5585;SDS011;2815;54.094;12.112;2024-03-23T13:48:46;6.05;;;0.68;;
5585;SDS011;2815;54.094;12.112;2024-03-23T13:51:13;4.55;;;1.17;;
5585;SDS011;2815;54.094;12.112;2024-03-23T13:53:40;1.92;;;0.98;;
5585;SDS011;2815;54.094;12.112;2024-03-23T13:56:07;2.30;;;0.98;;
5585;SDS011;2815;54.094;12.112;2024-03-23T13:58:34;1.85;;;0.80;;
5585;SDS011;2815;54.094;12.112;2024-03-23T14:01:00;2.67;;;0.80;;
5585;SDS011;2815;54.094;12.112;2024-03-23T14:03:30;4.13;;;0.80;;
5585;SDS011;2815;54.094;12.112;2024-03-23T14:05:57;1.42;;;0.85;;
5585;SDS011;2815;54.094;12.112;2024-03-23T14:08:26;2.03;;;0.90;;
5585;SDS011;2815;54.094;12.112;2024-03-23T14:10:53;4.75;;;1.00;;
5585;SDS011;2815;54.094;12.112;2024-03-23T14:13:21;2.38;;;0.80;;
5585;SDS011;2815;54.094;12.112;2024-03-23T14:15:52;2.97;;;0.80;;
5585;SDS011;2815;54.094;12.112;2024-03-23T14:18:20;2.78;;;0.80;;
5585;SDS011;2815;54.094;12.112;2024-03-23T14:20:49;3.13;;;0.90;;
5585;SDS011;2815;54.094;12.112;2024-03-23T14:23:17;6.78;;;0.90;;
5585;SDS011;2815;54.094;12.112;2024-03-23T14:25:43;2.17;;;0.82;;
5585;SDS011;2815;54.094;12.112;2024-03-23T14:28:11;3.08;;;0.77;;
5585;SDS011;2815;54.094;12.112;2024-03-23T14:30:41;4.88;;;0.85;;
5585;SDS011;2815;54.094;12.112;2024-03-23T14:33:08;4.20;;;1.00;;
5585;SDS011;2815;54.094;12.112;2024-03-23T14:35:34;1.75;;;0.70;;
5585;SDS011;2815;54.094;12.112;2024-03-23T14:38:03;4.78;;;1.15;;
5585;SDS011;2815;54.094;12.112;2024-03-23T14:40:30;3.65;;;1.02;;
5585;SDS011;2815;54.094;12.112;2024-03-23T14:42:57;4.13;;;1.20;;
5585;SDS011;2815;54.094;12.112;2024-03-23T14:45:24;4.18;;;1.23;;
5585;SDS011;2815;54.094;12.112;2024-03-23T14:47:52;7.25;;;1.73;;
5585;SDS011;2815;54.094;12.112;2024-03-23T14:50:19;4.85;;;1.20;;
5585;SDS011;2815;54.094;12.112;2024-03-23T14:52:49;7.03;;;1.52;;
5585;SDS011;2815;54.094;12.112;2024-03-23T14:55:20;5.60;;;0.73;;
5585;SDS011;2815;54.094;12.112;2024-03-23T14:57:51;3.92;;;0.90;;
5585;SDS011;2815;54.094;12.112;2024-03-23T15:00:17;3.72;;;0.80;;
5585;SDS011;2815;54.094;12.112;2024-03-23T15:02:45;6.57;;;0.77;;
5585;SDS011;2815;54.094;12.112;2024-03-23T15:05:14;2.75;;;0.73;;
5585;SDS011;2815;54.094;12.112;2024-03-23T15:07:41;4.03;;;1.10;;
5585;SDS011;2815;54.094;12.112;2024-03-23T15:10:07;4.00;;;0.70;;
5585;SDS011;2815;54.094;12.112;2024-03-23T15:12:40;3.30;;;0.82;;
5585;SDS011;2815;54.094;12.112;2024-03-23T15:15:06;3.50;;;0.82;;
5585;SDS011;2815;54.094;12.112;2024-03-23T15:17:38;4.57;;;0.95;;
5585;SDS011;2815;54.094;12.112;2024-03-23T15:20:07;2.25;;;0.75;;
5585;SDS011;2815;54.094;12.112;2024-03-23T15:22:37;12.23;;;1.33;;
5585;SDS011;2815;54.094;12.112;2024-03-23T15:25:03;5.30;;;1.20;;
5585;SDS011;2815;54.094;12.112;2024-03-23T15:27:31;2.70;;;0.80;;
5585;SDS011;2815;54.094;12.112;2024-03-23T15:30:00;2.80;;;0.60;;
5585;SDS011;2815;54.094;12.112;2024-03-23T15:32:28;3.50;;;0.93;;
5585;SDS011;2815;54.094;12.112;2024-03-23T15:34:55;4.10;;;0.80;;
5585;SDS011;2815;54.094;12.112;2024-03-23T15:37:23;4.93;;;0.88;;
5585;SDS011;2815;54.094;12.112;2024-03-23T15:39:51;5.10;;;0.50;;
5585;SDS011;2815;54.094;12.112;2024-03-23T15:42:20;2.55;;;0.70;;
5585;SDS011;2815;54.094;12.112;2024-03-23T15:44:48;4.90;;;0.82;;
5585;SDS011;2815;54.094;12.112;2024-03-23T15:47:21;1.52;;;0.60;;
5585;SDS011;2815;54.094;12.112;2024-03-23T15:49:47;2.55;;;0.65;;
5585;SDS011;2815;54.094;12.112;2024-03-23T15:52:30;1.63;;;0.63;;
5585;SDS011;2815;54.094;12.112;2024-03-23T15:56:06;3.08;;;0.55;;
5585;SDS011;2815;54.094;12.112;2024-03-23T15:59:55;4.40;;;1.02;;
5585;SDS011;2815;54.094;12.112;2024-03-23T16:10:59;1.58;;;0.90;;
5585;SDS011;2815;54.094;12.112;2024-03-23T16:13:27;5.72;;;0.88;;
5585;SDS011;2815;54.094;12.112;2024-03-23T16:15:55;4.85;;;1.00;;
5585;SDS011;2815;54.094;12.112;2024-03-23T16:18:24;3.75;;;0.85;;
5585;SDS011;2815;54.094;12.112;2024-03-23T16:20:52;1.35;;;0.70;;